sensor_id;sensor_type;location;lat;lon;timestamp;pressure;altitude;pressure_sealevel;temperature;humidity
45357;BME280;31092;51.924;21.448;2023-05-15T00:00:36;99987.44;;;13.78;100.00
45357;BME280;31092;51.924;21.448;2023-05-15T00:03:02;99987.00;;;13.74;100.00
45357;BME280;31092;51.924;21.448;2023-05-15T00:05:27;99984.47;;;13.73;100.00
45357;BME280;31092;51.924;21.448;2023-05-15T00:07:52;99981.59;;;13.74;100.00
45357;BME280;31092;51.924;21.448;2023-05-15T00:10:18;99981.59;;;13.74;100.00
45357;BME280;31092;51.924;21.448;2023-05-15T00:12:43;99978.88;;;13.74;100.00
45357;BME280;31092;51.924;21.448;2023-05-15T00:15:08;99970.69;;;13.68;100.00
45357;BME280;31092;51.924;21.448;2023-05-15T00:17:34;99971.13;;;13.71;100.00
45357;BME280;31092;51.924;21.448;2023-05-15T00:19:59;99968.44;;;13.71;100.00
45357;BME280;31092;51.924;21.448;2023-05-15T00:22:24;99964.69;;;13.72;100.00
45357;BME280;31092;51.924;21.448;2023-05-15T00:24:50;99970.47;;;13.69;100.00
45357;BME280;31092;51.924;21.448;2023-05-15T00:27:18;99960.06;;;13.66;100.00
45357;BME280;31092;51.924;21.448;2023-05-15T00:29:44;99969.19;;;13.65;100.00
45357;BME280;31092;51.924;21.448;2023-05-15T00:32:09;99962.31;;;13.62;100.00
45357;BME280;31092;51.924;21.448;2023-05-15T00:34:35;99963.72;;;13.58;100.00
45357;BME280;31092;51.924;21.448;2023-05-15T00:37:00;99960.38;;;13.56;100.00
45357;BME280;31092;51.924;21.448;2023-05-15T00:39:26;99953.25;;;13.55;100.00
45357;BME280;31092;51.924;21.448;2023-05-15T00:41:51;99953.25;;;13.55;100.00
45357;BME280;31092;51.924;21.448;2023-05-15T00:44:17;99956.84;;;13.56;100.00
45357;BME280;31092;51.924;21.448;2023-05-15T00:46:46;99941.97;;;13.52;100.00
45357;BME280;31092;51.924;21.448;2023-05-15T00:49:12;99954.88;;;13.50;100.00
45357;BME280;31092;51.924;21.448;2023-05-15T00:51:41;99960.88;;;13.45;100.00
45357;BME280;31092;51.924;21.448;2023-05-15T00:54:07;99956.84;;;13.41;100.00
45357;BME280;31092;51.924;21.448;2023-05-15T00:56:32;99959.75;;;13.39;100.00
45357;BME280;31092;51.924;21.448;2023-05-15T00:58:58;99957.25;;;13.38;100.00
45357;BME280;31092;51.924;21.448;2023-05-15T01:01:23;99960.53;;;13.33;100.00
45357;BME280;31092;51.924;21.448;2023-05-15T01:03:49;99964.63;;;13.29;100.00
45357;BME280;31092;51.924;21.448;2023-05-15T01:06:15;99965.22;;;13.25;100.00
45357;BME280;31092;51.924;21.448;2023-05-15T01:08:46;99961.19;;;13.21;100.00
45357;BME280;31092;51.924;21.448;2023-05-15T01:11:13;99965.69;;;13.13;100.00
45357;BME280;31092;51.924;21.448;2023-05-15T01:13:38;99959.97;;;13.08;100.00
45357;BME280;31092;51.924;21.448;2023-05-15T01:16:04;99958.06;;;13.02;100.00
45357;BME280;31092;51.924;21.448;2023-05-15T01:18:30;99942.22;;;12.99;100.00
45357;BME280;31092;51.924;21.448;2023-05-15T01:23:50;99924.94;;;13.00;100.00
45357;BME280;31092;51.924;21.448;2023-05-15T01:31:43;99909.84;;;13.06;100.00
45357;BME280;31092;51.924;21.448;2023-05-15T01:34:10;99916.25;;;13.05;100.00
45357;BME280;31092;51.924;21.448;2023-05-15T01:36:38;99921.22;;;13.01;100.00
45357;BME280;31092;51.924;21.448;2023-05-15T01:39:05;99906.41;;;12.97;100.00
45357;BME280;31092;51.924;21.448;2023-05-15T01:46:37;99916.50;;;12.88;100.00
45357;BME280;31092;51.924;21.448;2023-05-15T01:49:03;99906.88;;;12.86;100.00
45357;BME280;31092;51.924;21.448;2023-05-15T01:51:31;99894.41;;;12.85;100.00
45357;BME280;31092;51.924;21.448;2023-05-15T01:53:57;99873.78;;;12.84;100.00
45357;BME280;31092;51.924;21.448;2023-05-15T01:56:23;99877.16;;;12.86;100.00
45357;BME280;31092;51.924;21.448;2023-05-15T01:58:50;99883.59;;;12.85;100.00
45357;BME280;31092;51.924;21.448;2023-05-15T02:01:16;99878.94;;;12.79;100.00
45357;BME280;31092;51.924;21.448;2023-05-15T02:03:42;99868.03;;;12.72;100.00
45357;BME280;31092;51.924;21.448;2023-05-15T02:06:08;99867.22;;;12.72;100.00
45357;BME280;31092;51.924;21.448;2023-05-15T02:08:33;99863.84;;;12.69;100.00
45357;BME280;31092;51.924;21.448;2023-05-15T02:10:59;99863.69;;;12.71;100.00
45357;BME280;31092;51.924;21.448;2023-05-15T02:13:26;99851.84;;;12.72;100.00
45357;BME280;31092;51.924;21.448;2023-05-15T02:15:52;99849.13;;;12.72;100.00
45357;BME280;31092;51.924;21.448;2023-05-15T02:18:17;99846.63;;;12.70;100.00
45357;BME280;31092;51.924;21.448;2023-05-15T02:20:43;99842.69;;;12.73;100.00
45357;BME280;31092;51.924;21.448;2023-05-15T02:23:08;99849.13;;;12.72;100.00
45357;BME280;31092;51.924;21.448;2023-05-15T02:25:43;99855.56;;;12.71;100.00
45357;BME280;31092;51.924;21.448;2023-05-15T02:28:13;99853.91;;;12.70;100.00
45357;BME280;31092;51.924;21.448;2023-05-15T02:31:00;99852.88;;;12.71;100.00
45357;BME280;31092;51.924;21.448;2023-05-15T02:33:31;99843.72;;;12.72;100.00
45357;BME280;31092;51.924;21.448;2023-05-15T02:36:07;99832.75;;;12.74;100.00
45357;BME280;31092;51.924;21.448;2023-05-15T02:38:49;99832.53;;;12.75;100.00
45357;BME280;31092;51.924;21.448;2023-05-15T02:41:16;99825.28;;;12.76;100.00
45357;BME280;31092;51.924;21.448;2023-05-15T02:43:41;99824.22;;;12.77;100.00
45357;BME280;31092;51.924;21.448;2023-05-15T02:46:07;99814.53;;;12.82;100.00
45357;BME280;31092;51.924;21.448;2023-05-15T02:48:33;99811.47;;;12.85;100.00
45357;BME280;31092;51.924;21.448;2023-05-15T02:50:59;99806.75;;;12.94;100.00
45357;BME280;31092;51.924;21.448;2023-05-15T02:53:25;99799.75;;;13.00;100.00
45357;BME280;31092;51.924;21.448;2023-05-15T02:55:50;99796.69;;;13.03;100.00
45357;BME280;31092;51.924;21.448;2023-05-15T02:58:15;99770.72;;;13.08;100.00
45357;BME280;31092;51.924;21.448;2023-05-15T03:00:41;99777.03;;;13.15;100.00
45357;BME280;31092;51.924;21.448;2023-05-15T03:03:06;99777.47;;;13.19;100.00
45357;BME280;31092;51.924;21.448;2023-05-15T03:05:31;99767.69;;;13.18;100.00
45357;BME280;31092;51.924;21.448;2023-05-15T03:07:57;99770.19;;;13.19;100.00
45357;BME280;31092;51.924;21.448;2023-05-15T03:10:23;99765.66;;;13.20;100.00
45357;BME280;31092;51.924;21.448;2023-05-15T03:12:48;99757.13;;;13.23;100.00
45357;BME280;31092;51.924;21.448;2023-05-15T03:15:13;99748.84;;;13.25;100.00
45357;BME280;31092;51.924;21.448;2023-05-15T03:17:39;99747.44;;;13.29;100.00
45357;BME280;31092;51.924;21.448;2023-05-15T03:20:04;99742.03;;;13.29;100.00
45357;BME280;31092;51.924;21.448;2023-05-15T03:22:30;99727.22;;;13.25;100.00
45357;BME280;31092;51.924;21.448;2023-05-15T03:24:55;99724.31;;;13.26;100.00
45357;BME280;31092;51.924;21.448;2023-05-15T03:27:21;99716.66;;;13.30;100.00
45357;BME280;31092;51.924;21.448;2023-05-15T03:29:46;99715.63;;;13.31;100.00
45357;BME280;31092;51.924;21.448;2023-05-15T03:32:14;99712.50;;;13.34;100.00
45357;BME280;31092;51.924;21.448;2023-05-15T03:34:42;99710.00;;;13.32;100.00
45357;BME280;31092;51.924;21.448;2023-05-15T03:37:07;99712.06;;;13.30;100.00
45357;BME280;31092;51.924;21.448;2023-05-15T03:39:33;99708.75;;;13.28;100.00
45357;BME280;31092;51.924;21.448;2023-05-15T03:41:58;99700.81;;;13.27;100.00
45357;BME280;31092;51.924;21.448;2023-05-15T03:44:23;99693.34;;;13.29;100.00
45357;BME280;31092;51.924;21.448;2023-05-15T03:46:48;99685.88;;;13.31;100.00
45357;BME280;31092;51.924;21.448;2023-05-15T03:49:14;99688.16;;;13.34;100.00
45357;BME280;31092;51.924;21.448;2023-05-15T03:51:39;99685.50;;;13.40;100.00
45357;BME280;31092;51.924;21.448;2023-05-15T03:54:04;99689.50;;;13.45;100.00
45357;BME280;31092;51.924;21.448;2023-05-15T03:56:30;99678.28;;;13.48;100.00
45357;BME280;31092;51.924;21.448;2023-05-15T03:58:56;99683.28;;;13.51;100.00
45357;BME280;31092;51.924;21.448;2023-05-15T04:01:21;99682.91;;;13.54;100.00
45357;BME280;31092;51.924;21.448;2023-05-15T04:03:46;99679.16;;;13.55;100.00
45357;BME280;31092;51.924;21.448;2023-05-15T04:06:12;99682.69;;;13.55;100.00
45357;BME280;31092;51.924;21.448;2023-05-15T04:08:37;99674.56;;;13.55;100.00
45357;BME280;31092;51.924;21.448;2023-05-15T04:11:02;99670.47;;;13.59;100.00
45357;BME280;31092;51.924;21.448;2023-05-15T04:13:28;99657.56;;;13.61;100.00
45357;BME280;31092;51.924;21.448;2023-05-15T04:15:54;99661.53;;;13.65;100.00
45357;BME280;31092;51.924;21.448;2023-05-15T04:18:20;99660.13;;;13.70;100.00
45357;BME280;31092;51.924;21.448;2023-05-15T04:20:45;99658.66;;;13.74;100.00
45357;BME280;31092;51.924;21.448;2023-05-15T04:23:10;99650.16;;;13.77;100.00
45357;BME280;31092;51.924;21.448;2023-05-15T04:25:36;99664.53;;;13.77;100.00
45357;BME280;31092;51.924;21.448;2023-05-15T04:28:01;99666.41;;;13.77;100.00
45357;BME280;31092;51.924;21.448;2023-05-15T04:30:27;99667.00;;;13.79;100.00
45357;BME280;31092;51.924;21.448;2023-05-15T04:32:52;99663.25;;;13.80;100.00
45357;BME280;31092;51.924;21.448;2023-05-15T04:35:17;99658.50;;;13.82;100.00
45357;BME280;31092;51.924;21.448;2023-05-15T04:37:43;99658.88;;;13.79;100.00
45357;BME280;31092;51.924;21.448;2023-05-15T04:40:11;99668.88;;;13.78;100.00
45357;BME280;31092;51.924;21.448;2023-05-15T04:42:38;99658.28;;;13.77;100.00
45357;BME280;31092;51.924;21.448;2023-05-15T04:45:05;99649.09;;;13.78;100.00
45357;BME280;31092;51.924;21.448;2023-05-15T04:47:31;99647.03;;;13.80;100.00
45357;BME280;31092;51.924;21.448;2023-05-15T04:49:56;99639.53;;;13.82;100.00
45357;BME280;31092;51.924;21.448;2023-05-15T04:52:21;99640.19;;;13.84;100.00
45357;BME280;31092;51.924;21.448;2023-05-15T04:54:47;99625.41;;;13.86;100.00
45357;BME280;31092;51.924;21.448;2023-05-15T04:57:14;99627.94;;;13.95;100.00
45357;BME280;31092;51.924;21.448;2023-05-15T04:59:40;99627.75;;;14.03;100.00
45357;BME280;31092;51.924;21.448;2023-05-15T05:02:05;99622.38;;;14.09;100.00
45357;BME280;31092;51.924;21.448;2023-05-15T05:04:30;99616.34;;;14.14;100.00
45357;BME280;31092;51.924;21.448;2023-05-15T05:06:56;99617.81;;;14.17;100.00
45357;BME280;31092;51.924;21.448;2023-05-15T05:09:21;99615.94;;;14.17;100.00
45357;BME280;31092;51.924;21.448;2023-05-15T05:11:46;99611.97;;;14.20;100.00
45357;BME280;31092;51.924;21.448;2023-05-15T05:14:12;99611.78;;;14.21;100.00
45357;BME280;31092;51.924;21.448;2023-05-15T05:16:38;99623.03;;;14.25;100.00
45357;BME280;31092;51.924;21.448;2023-05-15T05:19:04;99623.84;;;14.25;100.00
45357;BME280;31092;51.924;21.448;2023-05-15T05:21:29;99622.81;;;14.26;100.00
45357;BME280;31092;51.924;21.448;2023-05-15T05:23:55;99629.91;;;14.27;100.00
45357;BME280;31092;51.924;21.448;2023-05-15T05:26:20;99629.69;;;14.29;100.00
45357;BME280;31092;51.924;21.448;2023-05-15T05:28:46;99624.72;;;14.32;100.00
45357;BME280;31092;51.924;21.448;2023-05-15T05:31:11;99628.25;;;14.33;100.00
45357;BME280;31092;51.924;21.448;2023-05-15T05:33:36;99632.44;;;14.35;100.00
45357;BME280;31092;51.924;21.448;2023-05-15T05:36:02;99639.09;;;14.40;100.00
45357;BME280;31092;51.924;21.448;2023-05-15T05:38:27;99637.63;;;14.37;100.00
45357;BME280;31092;51.924;21.448;2023-05-15T05:40:52;99648.03;;;14.33;100.00
45357;BME280;31092;51.924;21.448;2023-05-15T05:43:18;99646.78;;;14.29;100.00
45357;BME280;31092;51.924;21.448;2023-05-15T05:45:44;99648.63;;;14.22;100.00
45357;BME280;31092;51.924;21.448;2023-05-15T05:48:10;99639.66;;;14.15;100.00
45357;BME280;31092;51.924;21.448;2023-05-15T05:50:37;99644.47;;;14.13;100.00
45357;BME280;31092;51.924;21.448;2023-05-15T05:53:02;99653.00;;;14.10;100.00
45357;BME280;31092;51.924;21.448;2023-05-15T05:55:28;99645.25;;;14.07;100.00
45357;BME280;31092;51.924;21.448;2023-05-15T05:57:53;99648.19;;;14.05;100.00
45357;BME280;31092;51.924;21.448;2023-05-15T06:00:18;99656.31;;;14.05;100.00
45357;BME280;31092;51.924;21.448;2023-05-15T06:02:44;99660.66;;;14.00;100.00
45357;BME280;31092;51.924;21.448;2023-05-15T06:05:10;99653.16;;;13.95;100.00
45357;BME280;31092;51.924;21.448;2023-05-15T06:07:35;99659.78;;;13.93;100.00
45357;BME280;31092;51.924;21.448;2023-05-15T06:10:00;99659.13;;;13.90;100.00
45357;BME280;31092;51.924;21.448;2023-05-15T06:12:26;99586.94;;;13.50;100.00
45357;BME280;31092;51.924;21.448;2023-05-15T06:14:52;99659.38;;;13.96;100.00
45357;BME280;31092;51.924;21.448;2023-05-15T06:17:17;99656.47;;;13.97;100.00
45357;BME280;31092;51.924;21.448;2023-05-15T06:19:43;99655.03;;;13.95;100.00
45357;BME280;31092;51.924;21.448;2023-05-15T06:22:08;99654.59;;;13.91;100.00
45357;BME280;31092;51.924;21.448;2023-05-15T06:24:34;99653.50;;;13.85;100.00
45357;BME280;31092;51.924;21.448;2023-05-15T06:26:59;99654.31;;;13.79;100.00
45357;BME280;31092;51.924;21.448;2023-05-15T06:29:25;99660.97;;;13.77;100.00
45357;BME280;31092;51.924;21.448;2023-05-15T06:31:50;99649.50;;;13.75;100.00
45357;BME280;31092;51.924;21.448;2023-05-15T06:34:16;99643.44;;;13.73;100.00
45357;BME280;31092;51.924;21.448;2023-05-15T06:36:41;99646.38;;;13.71;100.00
45357;BME280;31092;51.924;21.448;2023-05-15T06:39:06;99653.84;;;13.69;100.00
45357;BME280;31092;51.924;21.448;2023-05-15T06:41:34;99650.91;;;13.64;100.00
45357;BME280;31092;51.924;21.448;2023-05-15T06:44:00;99649.00;;;13.58;100.00
45357;BME280;31092;51.924;21.448;2023-05-15T06:46:26;99648.13;;;13.51;100.00
45357;BME280;31092;51.924;21.448;2023-05-15T06:48:51;99641.66;;;13.45;100.00
45357;BME280;31092;51.924;21.448;2023-05-15T06:51:16;99654.09;;;13.39;100.00
45357;BME280;31092;51.924;21.448;2023-05-15T06:53:42;99646.53;;;13.28;100.00
45357;BME280;31092;51.924;21.448;2023-05-15T06:56:07;99646.78;;;13.12;100.00
45357;BME280;31092;51.924;21.448;2023-05-15T06:58:33;99646.72;;;12.99;100.00
45357;BME280;31092;51.924;21.448;2023-05-15T07:00:58;99638.66;;;12.84;100.00
45357;BME280;31092;51.924;21.448;2023-05-15T07:03:25;99644.44;;;12.74;100.00
45357;BME280;31092;51.924;21.448;2023-05-15T07:05:52;99639.13;;;12.66;100.00
45357;BME280;31092;51.924;21.448;2023-05-15T07:08:17;99635.34;;;12.60;100.00
45357;BME280;31092;51.924;21.448;2023-05-15T07:10:42;99632.84;;;12.59;100.00
45357;BME280;31092;51.924;21.448;2023-05-15T07:13:08;99640.09;;;12.58;100.00
45357;BME280;31092;51.924;21.448;2023-05-15T07:15:33;99648.50;;;12.63;100.00
45357;BME280;31092;51.924;21.448;2023-05-15T07:17:58;99638.75;;;12.69;100.00
45357;BME280;31092;51.924;21.448;2023-05-15T07:20:24;99644.66;;;12.79;100.00
45357;BME280;31092;51.924;21.448;2023-05-15T07:22:49;99650.13;;;12.86;100.00
45357;BME280;31092;51.924;21.448;2023-05-15T07:25:14;99655.16;;;12.89;100.00
45357;BME280;31092;51.924;21.448;2023-05-15T07:27:40;99650.38;;;12.91;100.00
45357;BME280;31092;51.924;21.448;2023-05-15T07:30:05;99651.84;;;12.93;100.00
45357;BME280;31092;51.924;21.448;2023-05-15T07:32:31;99649.81;;;12.96;100.00
45357;BME280;31092;51.924;21.448;2023-05-15T07:34:57;99637.56;;;13.00;100.00
45357;BME280;31092;51.924;21.448;2023-05-15T07:37:23;99643.19;;;13.05;100.00
45357;BME280;31092;51.924;21.448;2023-05-15T07:39:48;99642.63;;;13.09;100.00
45357;BME280;31092;51.924;21.448;2023-05-15T07:42:14;99648.50;;;13.13;100.00
45357;BME280;31092;51.924;21.448;2023-05-15T07:44:39;99647.22;;;13.15;100.00
45357;BME280;31092;51.924;21.448;2023-05-15T07:47:05;99641.44;;;13.18;100.00
45357;BME280;31092;51.924;21.448;2023-05-15T07:49:30;99626.47;;;13.23;100.00
45357;BME280;31092;51.924;21.448;2023-05-15T07:51:55;99629.47;;;13.28;100.00
45357;BME280;31092;51.924;21.448;2023-05-15T07:54:21;99620.09;;;13.30;100.00
45357;BME280;31092;51.924;21.448;2023-05-15T07:56:46;99628.22;;;13.30;100.00
45357;BME280;31092;51.924;21.448;2023-05-15T07:59:11;99620.97;;;13.31;100.00
45357;BME280;31092;51.924;21.448;2023-05-15T08:01:37;99620.75;;;13.32;100.00
45357;BME280;31092;51.924;21.448;2023-05-15T08:04:05;99629.25;;;13.29;100.00
45357;BME280;31092;51.924;21.448;2023-05-15T08:06:31;99606.09;;;13.20;100.00
45357;BME280;31092;51.924;21.448;2023-05-15T08:08:57;99613.25;;;13.28;100.00
45357;BME280;31092;51.924;21.448;2023-05-15T08:11:22;99609.06;;;13.25;100.00
45357;BME280;31092;51.924;21.448;2023-05-15T08:13:47;99616.13;;;13.26;100.00
45357;BME280;31092;51.924;21.448;2023-05-15T08:16:13;99616.13;;;13.26;100.00
45357;BME280;31092;51.924;21.448;2023-05-15T08:18:38;99606.81;;;13.29;100.00
45357;BME280;31092;51.924;21.448;2023-05-15T08:21:03;99604.09;;;13.29;100.00
45357;BME280;31092;51.924;21.448;2023-05-15T08:23:29;99605.56;;;13.31;100.00
45357;BME280;31092;51.924;21.448;2023-05-15T08:25:54;99601.38;;;13.29;100.00
45357;BME280;31092;51.924;21.448;2023-05-15T08:28:19;99611.78;;;13.25;100.00
45357;BME280;31092;51.924;21.448;2023-05-15T08:30:45;99607.94;;;13.19;100.00
45357;BME280;31092;51.924;21.448;2023-05-15T08:33:10;99614.34;;;13.12;100.00
45357;BME280;31092;51.924;21.448;2023-05-15T08:35:35;99621.78;;;13.03;100.00
45357;BME280;31092;51.924;21.448;2023-05-15T08:38:01;99618.19;;;12.96;100.00
45357;BME280;31092;51.924;21.448;2023-05-15T08:40:27;99609.38;;;12.87;100.00
45357;BME280;31092;51.924;21.448;2023-05-15T08:42:53;99621.84;;;12.82;100.00
45357;BME280;31092;51.924;21.448;2023-05-15T08:45:19;99614.50;;;12.76;100.00
45357;BME280;31092;51.924;21.448;2023-05-15T08:47:45;99615.47;;;12.68;100.00
45357;BME280;31092;51.924;21.448;2023-05-15T08:50:12;99616.91;;;12.64;100.00
45357;BME280;31092;51.924;21.448;2023-05-15T08:52:45;99621.47;;;12.63;100.00
45357;BME280;31092;51.924;21.448;2023-05-15T08:55:12;99623.34;;;12.63;100.00
45357;BME280;31092;51.924;21.448;2023-05-15T08:57:38;99621.91;;;12.67;100.00
45357;BME280;31092;51.924;21.448;2023-05-15T09:00:04;99616.13;;;12.70;100.00
45357;BME280;31092;51.924;21.448;2023-05-15T09:02:37;99613.44;;;12.70;100.00
45357;BME280;31092;51.924;21.448;2023-05-15T09:05:03;99631.69;;;12.68;100.00
45357;BME280;31092;51.924;21.448;2023-05-15T09:07:31;99626.50;;;12.66;100.00
45357;BME280;31092;51.924;21.448;2023-05-15T09:10:07;99621.66;;;12.62;100.00
45357;BME280;31092;51.924;21.448;2023-05-15T09:12:33;99619.16;;;12.60;100.00
45357;BME280;31092;51.924;21.448;2023-05-15T09:15:07;99610.41;;;12.58;100.00
45357;BME280;31092;51.924;21.448;2023-05-15T09:17:36;99613.03;;;12.52;100.00
45357;BME280;31092;51.924;21.448;2023-05-15T09:20:02;99612.41;;;12.50;100.00
45357;BME280;31092;51.924;21.448;2023-05-15T09:22:30;99609.31;;;12.53;100.00
45357;BME280;31092;51.924;21.448;2023-05-15T09:24:57;99607.50;;;12.60;100.00
45357;BME280;31092;51.924;21.448;2023-05-15T09:27:22;99601.53;;;12.64;100.00
45357;BME280;31092;51.924;21.448;2023-05-15T09:29:48;99612.38;;;12.71;100.00
45357;BME280;31092;51.924;21.448;2023-05-15T09:32:18;99609.53;;;12.79;100.00
45357;BME280;31092;51.924;21.448;2023-05-15T09:34:44;99603.16;;;12.87;100.00
45357;BME280;31092;51.924;21.448;2023-05-15T09:37:28;99594.66;;;12.90;100.00
45357;BME280;31092;51.924;21.448;2023-05-15T09:40:07;99595.47;;;12.90;100.00
45357;BME280;31092;51.924;21.448;2023-05-15T09:42:34;99580.09;;;12.91;100.00
45357;BME280;31092;51.924;21.448;2023-05-15T09:45:00;99574.94;;;12.96;100.00
45357;BME280;31092;51.924;21.448;2023-05-15T09:47:26;99575.00;;;13.03;100.00
45357;BME280;31092;51.924;21.448;2023-05-15T09:50:07;99569.38;;;13.04;100.00
45357;BME280;31092;51.924;21.448;2023-05-15T09:52:33;99561.97;;;13.13;100.00
45357;BME280;31092;51.924;21.448;2023-05-15T09:55:00;99555.34;;;13.22;100.00
45357;BME280;31092;51.924;21.448;2023-05-15T09:57:25;99554.75;;;13.27;100.00
45357;BME280;31092;51.924;21.448;2023-05-15T09:59:51;99551.09;;;13.34;100.00
45357;BME280;31092;51.924;21.448;2023-05-15T10:02:32;99546.28;;;13.36;100.00
45357;BME280;31092;51.924;21.448;2023-05-15T10:05:15;99545.25;;;13.31;100.00
45357;BME280;31092;51.924;21.448;2023-05-15T10:07:41;99545.44;;;13.29;100.00
45357;BME280;31092;51.924;21.448;2023-05-15T10:10:06;99564.06;;;13.17;100.00
45357;BME280;31092;51.924;21.448;2023-05-15T10:12:32;99568.78;;;13.09;100.00
45357;BME280;31092;51.924;21.448;2023-05-15T10:15:00;99576.00;;;13.02;100.00
45357;BME280;31092;51.924;21.448;2023-05-15T10:17:27;99577.38;;;12.91;100.00
45357;BME280;31092;51.924;21.448;2023-05-15T10:19:52;99588.56;;;12.81;100.00
45357;BME280;31092;51.924;21.448;2023-05-15T10:22:32;99593.25;;;12.73;100.00
45357;BME280;31092;51.924;21.448;2023-05-15T10:28:18;99589.59;;;12.59;100.00
45357;BME280;31092;51.924;21.448;2023-05-15T10:30:54;99584.41;;;12.57;100.00
45357;BME280;31092;51.924;21.448;2023-05-15T10:33:39;99585.47;;;12.56;100.00
45357;BME280;31092;51.924;21.448;2023-05-15T10:36:05;99582.09;;;12.54;100.00
45357;BME280;31092;51.924;21.448;2023-05-15T10:38:43;99580.81;;;12.50;100.00
45357;BME280;31092;51.924;21.448;2023-05-15T10:41:09;99587.66;;;12.46;100.00
45357;BME280;31092;51.924;21.448;2023-05-15T10:43:35;99580.75;;;12.43;100.00
45357;BME280;31092;51.924;21.448;2023-05-15T10:46:02;99582.03;;;12.48;100.00
45357;BME280;31092;51.924;21.448;2023-05-15T10:48:28;99580.63;;;12.52;100.00
45357;BME280;31092;51.924;21.448;2023-05-15T10:51:03;99588.34;;;12.55;100.00
45357;BME280;31092;51.924;21.448;2023-05-15T10:53:51;99576.69;;;12.54;100.00
45357;BME280;31092;51.924;21.448;2023-05-15T10:56:17;99581.94;;;12.56;100.00
45357;BME280;31092;51.924;21.448;2023-05-15T10:59:31;99573.81;;;12.56;100.00
45357;BME280;31092;51.924;21.448;2023-05-15T11:05:05;99576.91;;;12.53;100.00
45357;BME280;31092;51.924;21.448;2023-05-15T11:25:17;99570.63;;;12.45;100.00
45357;BME280;31092;51.924;21.448;2023-05-15T11:31:05;99573.44;;;12.37;100.00
45357;BME280;31092;51.924;21.448;2023-05-15T11:33:51;99569.06;;;12.36;100.00
45357;BME280;31092;51.924;21.448;2023-05-15T11:36:27;99567.03;;;12.38;100.00
45357;BME280;31092;51.924;21.448;2023-05-15T11:42:11;99563.72;;;12.43;100.00
45357;BME280;31092;51.924;21.448;2023-05-15T11:44:37;99558.13;;;12.44;100.00
45357;BME280;31092;51.924;21.448;2023-05-15T11:47:03;99561.47;;;12.46;100.00
45357;BME280;31092;51.924;21.448;2023-05-15T11:49:29;99563.13;;;12.48;100.00
45357;BME280;31092;51.924;21.448;2023-05-15T11:51:54;99567.50;;;12.49;100.00
45357;BME280;31092;51.924;21.448;2023-05-15T11:54:19;99559.59;;;12.47;100.00
45357;BME280;31092;51.924;21.448;2023-05-15T11:56:45;99565.84;;;12.48;100.00
45357;BME280;31092;51.924;21.448;2023-05-15T11:59:13;99563.13;;;12.48;100.00
45357;BME280;31092;51.924;21.448;2023-05-15T12:01:42;99564.16;;;12.46;100.00
45357;BME280;31092;51.924;21.448;2023-05-15T12:04:11;99560.81;;;12.44;100.00
45357;BME280;31092;51.924;21.448;2023-05-15T12:06:38;99551.88;;;12.44;100.00
45357;BME280;31092;51.924;21.448;2023-05-15T12:09:26;99563.72;;;12.43;100.00
45357;BME280;31092;51.924;21.448;2023-05-15T12:11:53;99559.16;;;12.43;100.00
45357;BME280;31092;51.924;21.448;2023-05-15T12:14:28;99555.41;;;12.44;100.00
45357;BME280;31092;51.924;21.448;2023-05-15T12:16:53;99562.69;;;12.44;100.00
45357;BME280;31092;51.924;21.448;2023-05-15T12:19:27;99561.47;;;12.46;100.00
45357;BME280;31092;51.924;21.448;2023-05-15T12:21:53;99566.66;;;12.48;100.00
45357;BME280;31092;51.924;21.448;2023-05-15T12:24:18;99567.50;;;12.49;100.00
45357;BME280;31092;51.924;21.448;2023-05-15T12:26:44;99565.66;;;12.49;100.00
45357;BME280;31092;51.924;21.448;2023-05-15T12:29:10;99559.00;;;12.52;100.00
45357;BME280;31092;51.924;21.448;2023-05-15T12:31:36;99548.19;;;12.52;100.00
45357;BME280;31092;51.924;21.448;2023-05-15T12:34:02;99545.50;;;12.52;100.00
45357;BME280;31092;51.924;21.448;2023-05-15T12:36:27;99550.72;;;12.53;100.00
45357;BME280;31092;51.924;21.448;2023-05-15T12:38:56;99548.03;;;12.53;100.00
45357;BME280;31092;51.924;21.448;2023-05-15T12:41:25;99547.00;;;12.54;100.00
45357;BME280;31092;51.924;21.448;2023-05-15T12:43:50;99547.19;;;12.53;100.00
45357;BME280;31092;51.924;21.448;2023-05-15T12:46:16;99549.03;;;12.52;100.00
45357;BME280;31092;51.924;21.448;2023-05-15T12:48:46;99543.44;;;12.54;100.00
45357;BME280;31092;51.924;21.448;2023-05-15T12:51:11;99538.88;;;12.54;100.00
45357;BME280;31092;51.924;21.448;2023-05-15T12:53:40;99544.28;;;12.54;100.00
45357;BME280;31092;51.924;21.448;2023-05-15T12:56:06;99539.72;;;12.55;100.00
45357;BME280;31092;51.924;21.448;2023-05-15T12:58:32;99547.63;;;12.56;100.00
45357;BME280;31092;51.924;21.448;2023-05-15T13:00:57;99530.41;;;12.57;100.00
45357;BME280;31092;51.924;21.448;2023-05-15T13:03:23;99538.50;;;12.57;100.00
45357;BME280;31092;51.924;21.448;2023-05-15T13:05:48;99542.25;;;12.56;100.00
45357;BME280;31092;51.924;21.448;2023-05-15T13:08:16;99530.41;;;12.57;100.00
45357;BME280;31092;51.924;21.448;2023-05-15T13:10:42;99522.28;;;12.57;100.00
45357;BME280;31092;51.924;21.448;2023-05-15T13:13:08;99519.59;;;12.57;100.00
45357;BME280;31092;51.924;21.448;2023-05-15T13:15:35;99513.34;;;12.57;100.00
45357;BME280;31092;51.924;21.448;2023-05-15T13:18:05;99509.81;;;12.56;100.00
45357;BME280;31092;51.924;21.448;2023-05-15T13:20:40;99510.66;;;12.57;100.00
45357;BME280;31092;51.924;21.448;2023-05-15T13:23:06;99506.91;;;12.58;100.00